createdAt,value
2019-02-05T00:01:15.546Z,3.40
2019-02-05T00:06:16.912Z,3.38
2019-02-05T00:11:18.244Z,3.43
2019-02-05T00:16:20.317Z,3.47
2019-02-05T00:21:22.530Z,3.39
2019-02-05T00:26:23.876Z,3.30
2019-02-05T00:31:25.229Z,3.27
2019-02-05T00:36:26.609Z,3.25
2019-02-05T00:41:28.060Z,3.23
2019-02-05T00:46:30.160Z,3.24
2019-02-05T00:51:32.289Z,3.20
2019-02-05T00:56:33.681Z,3.22
2019-02-05T01:01:35.820Z,3.20
2019-02-05T01:06:37.286Z,3.08
2019-02-05T01:11:38.627Z,3.06
2019-02-05T01:16:40.036Z,3.01
2019-02-05T01:21:41.500Z,2.92
2019-02-05T01:26:42.905Z,2.68
2019-02-05T01:31:45.055Z,2.57
2019-02-05T01:36:46.413Z,2.51
2019-02-05T01:41:48.530Z,2.49
2019-02-05T01:46:50.653Z,2.50
2019-02-05T01:51:52.029Z,2.32
2019-02-05T01:56:53.451Z,2.35
2019-02-05T02:01:54.799Z,2.47
2019-02-05T02:06:56.956Z,2.12
2019-02-05T02:11:58.296Z,1.98
2019-02-05T02:16:59.644Z,1.96
2019-02-05T02:22:01.107Z,2.20
2019-02-05T02:27:02.605Z,2.38
2019-02-05T02:32:03.999Z,2.40
2019-02-05T02:37:06.084Z,2.45
2019-02-05T02:42:07.488Z,2.57
2019-02-05T02:47:08.843Z,2.47
2019-02-05T02:52:10.178Z,2.47
2019-02-05T02:57:12.356Z,2.43
2019-02-05T03:02:14.525Z,2.39
2019-02-05T03:07:15.871Z,2.27
2019-02-05T03:12:17.271Z,2.30
2019-02-05T03:17:18.677Z,2.32
2019-02-05T03:22:20.071Z,2.29
2019-02-05T03:27:21.426Z,2.39
2019-02-05T03:32:22.764Z,2.42
2019-02-05T03:37:24.154Z,2.42
2019-02-05T03:42:25.562Z,2.34
2019-02-05T03:47:27.052Z,2.43
2019-02-05T03:52:28.460Z,2.36
2019-02-05T03:57:47.399Z,2.35
2019-02-05T04:08:48.731Z,2.14
2019-02-05T04:13:52.884Z,2.05
2019-02-05T04:18:55.939Z,2.07
2019-02-05T04:24:00.868Z,1.98
2019-02-05T04:34:41.396Z,1.98
2019-02-05T04:39:51.392Z,2.12
2019-02-05T04:50:42.153Z,2.07
2019-02-05T05:01:22.625Z,2.07
2019-02-05T05:12:00.311Z,1.85
2019-02-05T05:17:01.770Z,1.93
2019-02-05T05:22:03.146Z,2.07
2019-02-05T05:27:04.690Z,2.04
2019-02-05T05:32:06.072Z,2.02
2019-02-05T05:37:07.229Z,2.02
2019-02-05T05:42:08.690Z,2.08
2019-02-05T05:47:10.253Z,2.03
2019-02-05T05:52:11.637Z,1.96
2019-02-05T05:57:13.067Z,1.98
2019-02-05T06:02:14.459Z,2.07
2019-02-05T06:07:15.841Z,2.00
2019-02-05T06:12:17.208Z,1.95
2019-02-05T06:17:18.608Z,1.87
2019-02-05T06:22:20.170Z,1.73
2019-02-05T06:27:21.595Z,1.69
2019-02-05T06:32:23.097Z,1.60
2019-02-05T06:37:26.030Z,1.54
2019-02-05T06:42:27.493Z,1.39
2019-02-05T06:47:28.833Z,0.87
2019-02-05T06:52:30.885Z,0.94
2019-02-05T06:57:32.378Z,0.98
2019-02-05T07:02:34.955Z,0.66
2019-02-05T07:07:37.468Z,0.50
2019-02-05T07:12:39.708Z,0.42
2019-02-05T07:17:49.273Z,0.44
2019-02-05T07:22:43.289Z,0.75
2019-02-05T07:27:44.849Z,0.56
2019-02-05T07:32:46.280Z,0.37
2019-02-05T07:37:47.724Z,0.72
2019-02-05T07:42:49.132Z,1.04
2019-02-05T07:47:50.739Z,1.15
2019-02-05T07:52:52.192Z,1.41
2019-02-05T07:57:54.252Z,1.64
2019-02-05T08:02:55.615Z,1.83
2019-02-05T08:07:57.001Z,1.94
2019-02-05T08:12:59.084Z,2.10
2019-02-05T08:18:01.178Z,1.93
2019-02-05T08:23:02.663Z,1.86
2019-02-05T08:28:04.110Z,1.87
2019-02-05T08:33:05.458Z,2.02
2019-02-05T08:38:06.842Z,2.09
2019-02-05T08:43:08.237Z,2.37
2019-02-05T08:48:09.591Z,2.50
2019-02-05T08:53:11.009Z,2.68
2019-02-05T08:58:12.393Z,2.33
2019-02-05T09:03:13.748Z,2.13
2019-02-05T09:08:15.113Z,1.91
2019-02-05T09:13:17.259Z,1.96
2019-02-05T09:18:18.612Z,1.30
2019-02-05T09:23:20.008Z,1.65
2019-02-05T09:28:21.352Z,0.83
2019-02-05T09:33:22.716Z,1.22
2019-02-05T09:38:24.053Z,1.17
2019-02-05T09:43:25.385Z,1.19
2019-02-05T09:48:27.481Z,1.83
2019-02-05T09:53:28.881Z,1.86
2019-02-05T09:58:30.344Z,2.50
2019-02-05T10:03:31.709Z,2.35
2019-02-05T10:08:33.057Z,2.45
2019-02-05T10:13:34.446Z,2.30
2019-02-05T10:18:35.867Z,1.87
2019-02-05T10:23:37.316Z,1.84
2019-02-05T10:28:38.732Z,2.29
2019-02-05T10:33:40.125Z,2.43
2019-02-05T10:38:41.521Z,2.50
2019-02-05T10:43:42.934Z,2.46
2019-02-05T10:48:44.271Z,3.07
2019-02-05T10:53:45.763Z,3.35
2019-02-05T10:58:47.220Z,3.19
2019-02-05T11:03:48.594Z,2.69
2019-02-05T11:08:50.027Z,2.93
2019-02-05T11:13:51.427Z,3.18
2019-02-05T11:18:52.783Z,2.88
2019-02-05T11:23:54.218Z,3.11
2019-02-05T11:28:55.536Z,3.31
2019-02-05T11:33:56.840Z,3.40
2019-02-05T11:38:58.210Z,3.70
2019-02-05T11:43:59.603Z,3.69
2019-02-05T11:49:01.117Z,3.97
2019-02-05T11:54:03.334Z,4.37
2019-02-05T11:59:04.744Z,4.69
2019-02-05T12:04:06.100Z,4.34
2019-02-05T12:09:07.554Z,4.82
2019-02-05T12:14:08.961Z,4.69
2019-02-05T12:19:10.387Z,4.44
2019-02-05T12:24:11.771Z,4.92
2019-02-05T12:29:13.196Z,4.93
2019-02-05T12:34:14.592Z,4.18
2019-02-05T12:39:15.968Z,5.28
2019-02-05T12:44:17.321Z,5.64
2019-02-05T12:49:18.709Z,4.82
2019-02-05T12:54:20.031Z,5.13
2019-02-05T12:59:21.377Z,5.54
2019-02-05T13:04:22.750Z,5.74
2019-02-05T13:09:24.189Z,5.78
2019-02-05T13:14:26.259Z,4.74
2019-02-05T13:19:27.620Z,5.33
2019-02-05T13:24:28.963Z,5.81
2019-02-05T13:29:30.340Z,5.01
2019-02-05T13:34:31.692Z,5.71
2019-02-05T13:39:33.037Z,5.85
2019-02-05T13:44:34.367Z,6.08
2019-02-05T13:49:35.717Z,5.80
2019-02-05T13:54:37.129Z,4.59
2019-02-05T13:59:38.624Z,5.67
2019-02-05T14:04:39.997Z,4.72
2019-02-05T14:09:41.322Z,4.73
2019-02-05T14:14:42.658Z,5.35
2019-02-05T14:19:44.009Z,5.41
2019-02-05T14:24:45.347Z,5.12
2019-02-05T14:29:46.766Z,3.60
2019-02-05T14:34:48.118Z,4.47
2019-02-05T14:39:49.447Z,3.83
2019-02-05T14:44:50.870Z,3.20
2019-02-05T14:49:52.268Z,3.45
2019-02-05T14:54:53.673Z,2.52
2019-02-05T14:59:55.107Z,2.64
2019-02-05T15:04:56.507Z,2.47
2019-02-05T15:09:57.844Z,3.05
2019-02-05T15:14:59.164Z,3.23
2019-02-05T15:20:01.256Z,3.15
2019-02-05T15:25:02.631Z,3.39
2019-02-05T15:30:12.741Z,3.38
2019-02-05T15:35:14.121Z,3.47
2019-02-05T15:40:15.443Z,3.51
2019-02-05T15:45:16.789Z,3.61
2019-02-05T15:50:18.124Z,3.54
2019-02-05T15:55:21.073Z,3.65
2019-02-05T16:00:20.839Z,3.37
2019-02-05T16:05:22.197Z,3.23
2019-02-05T16:10:23.557Z,3.07
2019-02-05T16:15:24.970Z,3.13
2019-02-05T16:20:26.337Z,3.03
2019-02-05T16:25:27.784Z,2.96
2019-02-05T16:30:29.222Z,2.57
2019-02-05T16:35:30.549Z,2.61
2019-02-05T16:40:34.640Z,2.39
2019-02-05T16:45:35.974Z,2.18
2019-02-05T16:50:43.126Z,2.17
2019-02-05T16:55:45.261Z,1.98
2019-02-05T17:00:46.595Z,2.11
2019-02-05T17:05:47.941Z,2.24
2019-02-05T17:10:49.342Z,2.42
2019-02-05T17:15:55.734Z,2.37
2019-02-05T17:20:58.204Z,2.20
2019-02-05T17:25:59.624Z,2.36
2019-02-05T17:31:01.094Z,2.25
2019-02-05T17:36:03.051Z,2.37
2019-02-05T17:41:05.561Z,2.45
2019-02-05T17:46:06.883Z,2.54
2019-02-05T17:51:09.305Z,2.66
2019-02-05T17:56:10.756Z,2.34
2019-02-05T18:01:17.355Z,1.83
2019-02-05T18:06:18.703Z,1.71
2019-02-05T18:11:20.156Z,1.45
2019-02-05T18:16:21.477Z,1.46
2019-02-05T18:21:22.879Z,1.54
2019-02-05T18:26:25.831Z,1.83
2019-02-05T18:31:27.343Z,2.02
2019-02-05T18:36:32.032Z,2.12
2019-02-05T18:41:36.801Z,2.03
2019-02-05T18:46:42.343Z,2.11
2019-02-05T18:51:43.753Z,2.19
2019-02-05T18:56:45.207Z,2.19
2019-02-05T19:01:47.411Z,2.31
2019-02-05T19:06:48.857Z,2.21
2019-02-05T19:12:04.146Z,2.19
2019-02-05T19:17:04.276Z,2.14
2019-02-05T19:22:10.294Z,1.77
2019-02-05T19:27:11.728Z,1.94
2019-02-05T19:32:13.820Z,2.04
2019-02-05T19:37:16.049Z,2.13
2019-02-05T19:42:17.506Z,2.21
2019-02-05T19:47:19.097Z,2.19
2019-02-05T19:52:20.393Z,2.21
2019-02-05T19:57:21.797Z,2.20
2019-02-05T20:02:23.284Z,2.04
2019-02-05T20:07:26.125Z,1.92
2019-02-05T20:12:29.259Z,2.07
2019-02-05T20:17:30.789Z,2.22
2019-02-05T20:22:32.288Z,2.25
2019-02-05T20:27:33.760Z,2.21
2019-02-05T20:32:35.252Z,2.21
2019-02-05T20:37:37.296Z,2.21
2019-02-05T20:42:38.761Z,2.22
2019-02-05T20:47:41.535Z,2.22
2019-02-05T20:52:52.523Z,2.27
2019-02-05T20:57:54.696Z,2.26
2019-02-05T21:02:58.069Z,2.36
2019-02-05T21:07:59.521Z,2.41
2019-02-05T21:13:01.957Z,2.43
2019-02-05T21:18:03.459Z,2.17
2019-02-05T21:23:19.584Z,2.22
2019-02-05T21:28:20.955Z,2.20
2019-02-05T21:33:22.449Z,2.37
2019-02-05T21:38:23.934Z,2.34
2019-02-05T21:43:25.990Z,2.34
2019-02-05T21:48:28.426Z,2.36
2019-02-05T21:53:36.194Z,2.41
2019-02-05T21:58:40.296Z,2.41
2019-02-05T22:03:51.489Z,2.32
2019-02-05T22:08:52.905Z,2.11
2019-02-05T22:14:02.682Z,2.16
2019-02-05T22:19:08.330Z,2.33
2019-02-05T22:24:11.954Z,2.44
2019-02-05T22:29:16.361Z,2.39
2019-02-05T22:34:17.822Z,2.45
2019-02-05T22:39:21.441Z,2.47
2019-02-05T22:44:27.976Z,2.40
2019-02-05T22:49:32.692Z,2.36
2019-02-05T22:54:36.519Z,2.17
2019-02-05T22:59:40.225Z,1.99
2019-02-05T23:04:50.358Z,2.11
2019-02-05T23:09:51.730Z,1.97
2019-02-05T23:15:13.028Z,2.09
2019-02-05T23:20:15.105Z,2.11
2019-02-05T23:25:17.210Z,2.14
2019-02-05T23:30:18.548Z,2.01
2019-02-05T23:35:20.710Z,1.91
2019-02-05T23:40:22.057Z,1.99
2019-02-05T23:45:23.434Z,2.08
2019-02-05T23:50:24.796Z,2.15
2019-02-05T23:55:26.129Z,2.15
